sensor_id;sensor_type;location;lat;lon;timestamp;pressure;altitude;pressure_sealevel;temperature;humidity
59337;BME280;45115;52.002;4.686;2023-01-25T00:00:26;103862.94;;;0.42;100.00
59337;BME280;45115;52.002;4.686;2023-01-25T00:02:54;103866.28;;;0.33;100.00
59337;BME280;45115;52.002;4.686;2023-01-25T00:05:21;103874.41;;;0.30;100.00
59337;BME280;45115;52.002;4.686;2023-01-25T00:07:48;103873.78;;;0.26;100.00
59337;BME280;45115;52.002;4.686;2023-01-25T00:10:14;103863.34;;;0.26;100.00
59337;BME280;45115;52.002;4.686;2023-01-25T00:12:41;103859.66;;;0.29;100.00
59337;BME280;45115;52.002;4.686;2023-01-25T00:15:09;103855.50;;;0.26;100.00
59337;BME280;45115;52.002;4.686;2023-01-25T00:17:35;103852.88;;;0.26;100.00
59337;BME280;45115;52.002;4.686;2023-01-25T00:20:04;103846.84;;;0.25;100.00
59337;BME280;45115;52.002;4.686;2023-01-25T00:22:31;103841.06;;;0.22;100.00
59337;BME280;45115;52.002;4.686;2023-01-25T00:24:57;103843.78;;;0.20;100.00
59337;BME280;45115;52.002;4.686;2023-01-25T00:27:24;103836.19;;;0.17;100.00
59337;BME280;45115;52.002;4.686;2023-01-25T00:29:53;103831.09;;;0.16;100.00
59337;BME280;45115;52.002;4.686;2023-01-25T00:32:40;103835.50;;;0.15;100.00
59337;BME280;45115;52.002;4.686;2023-01-25T00:35:11;103828.22;;;0.19;100.00
59337;BME280;45115;52.002;4.686;2023-01-25T00:37:39;103821.94;;;0.21;100.00
59337;BME280;45115;52.002;4.686;2023-01-25T00:40:10;103808.03;;;0.21;100.00
59337;BME280;45115;52.002;4.686;2023-01-25T00:42:37;103818.94;;;0.26;100.00
59337;BME280;45115;52.002;4.686;2023-01-25T00:45:05;103822.06;;;0.20;100.00
59337;BME280;45115;52.002;4.686;2023-01-25T00:47:32;103824.44;;;0.23;100.00
59337;BME280;45115;52.002;4.686;2023-01-25T00:50:03;103812.78;;;0.27;100.00
59337;BME280;45115;52.002;4.686;2023-01-25T00:52:32;103823.47;;;0.24;100.00
59337;BME280;45115;52.002;4.686;2023-01-25T00:54:59;103820.03;;;0.23;100.00
59337;BME280;45115;52.002;4.686;2023-01-25T00:57:26;103820.16;;;0.22;100.00
59337;BME280;45115;52.002;4.686;2023-01-25T00:59:52;103820.75;;;0.25;100.00
59337;BME280;45115;52.002;4.686;2023-01-25T01:02:19;103816.72;;;0.21;100.00
59337;BME280;45115;52.002;4.686;2023-01-25T01:04:46;103824.56;;;0.21;100.00
59337;BME280;45115;52.002;4.686;2023-01-25T01:07:13;103823.59;;;0.22;100.00
59337;BME280;45115;52.002;4.686;2023-01-25T01:09:42;103814.09;;;0.21;100.00
59337;BME280;45115;52.002;4.686;2023-01-25T01:12:08;103816.72;;;0.21;100.00
59337;BME280;45115;52.002;4.686;2023-01-25T01:14:35;103799.50;;;0.19;100.00
59337;BME280;45115;52.002;4.686;2023-01-25T01:17:02;103813.72;;;0.26;100.00
59337;BME280;45115;52.002;4.686;2023-01-25T01:19:29;103806.50;;;0.18;100.00
59337;BME280;45115;52.002;4.686;2023-01-25T01:21:56;103808.66;;;0.13;100.00
59337;BME280;45115;52.002;4.686;2023-01-25T01:24:22;103806.19;;;0.11;100.00
59337;BME280;45115;52.002;4.686;2023-01-25T01:26:50;103811.53;;;0.10;100.00
59337;BME280;45115;52.002;4.686;2023-01-25T01:29:17;103809.88;;;0.09;100.00
59337;BME280;45115;52.002;4.686;2023-01-25T01:31:44;103810.91;;;0.18;100.00
59337;BME280;45115;52.002;4.686;2023-01-25T01:34:17;103809.38;;;0.15;100.00
59337;BME280;45115;52.002;4.686;2023-01-25T01:36:44;103809.25;;;0.17;100.00
59337;BME280;45115;52.002;4.686;2023-01-25T01:39:10;103812.81;;;0.16;100.00
59337;BME280;45115;52.002;4.686;2023-01-25T01:41:38;103802.16;;;0.07;100.00
59337;BME280;45115;52.002;4.686;2023-01-25T01:44:14;103808.19;;;0.08;100.00
59337;BME280;45115;52.002;4.686;2023-01-25T01:46:45;103804.19;;;0.04;100.00
59337;BME280;45115;52.002;4.686;2023-01-25T01:49:19;103810.81;;;0.08;100.00
59337;BME280;45115;52.002;4.686;2023-01-25T01:51:49;103805.59;;;0.08;100.00
59337;BME280;45115;52.002;4.686;2023-01-25T01:54:25;103807.00;;;0.12;100.00
59337;BME280;45115;52.002;4.686;2023-01-25T01:56:56;103813.88;;;0.13;100.00
59337;BME280;45115;52.002;4.686;2023-01-25T01:59:29;103808.47;;;0.05;100.00
59337;BME280;45115;52.002;4.686;2023-01-25T02:02:00;103810.22;;;0.04;100.00
59337;BME280;45115;52.002;4.686;2023-01-25T02:04:28;103803.81;;;0.08;100.00
59337;BME280;45115;52.002;4.686;2023-01-25T02:07:00;103801.44;;;0.05;100.00
59337;BME280;45115;52.002;4.686;2023-01-25T02:09:30;103809.63;;;0.12;100.00
59337;BME280;45115;52.002;4.686;2023-01-25T02:11:59;103796.47;;;0.02;100.00
59337;BME280;45115;52.002;4.686;2023-01-25T02:14:30;103797.66;;;-0.02;100.00
59337;BME280;45115;52.002;4.686;2023-01-25T02:16:58;103804.19;;;0.04;100.00
59337;BME280;45115;52.002;4.686;2023-01-25T02:19:33;103798.25;;;0.02;100.00
59337;BME280;45115;52.002;4.686;2023-01-25T02:22:05;103793.53;;;-0.05;100.00
59337;BME280;45115;52.002;4.686;2023-01-25T02:24:36;103796.03;;;-0.03;100.00
59337;BME280;45115;52.002;4.686;2023-01-25T02:27:06;103789.97;;;-0.04;100.00
59337;BME280;45115;52.002;4.686;2023-01-25T02:29:34;103799.69;;;-0.06;100.00
59337;BME280;45115;52.002;4.686;2023-01-25T02:32:03;103784.28;;;-0.09;100.00
59337;BME280;45115;52.002;4.686;2023-01-25T02:34:30;103787.50;;;-0.05;100.00
59337;BME280;45115;52.002;4.686;2023-01-25T02:36:57;103783.81;;;-0.03;100.00
59337;BME280;45115;52.002;4.686;2023-01-25T02:39:23;103787.81;;;0.02;100.00
59337;BME280;45115;52.002;4.686;2023-01-25T02:41:52;103774.75;;;0.02;100.00
59337;BME280;45115;52.002;4.686;2023-01-25T02:44:23;103775.84;;;-0.01;100.00
59337;BME280;45115;52.002;4.686;2023-01-25T02:46:50;103769.22;;;-0.05;100.00
59337;BME280;45115;52.002;4.686;2023-01-25T02:49:18;103764.81;;;-0.05;100.00
59337;BME280;45115;52.002;4.686;2023-01-25T02:51:48;103757.47;;;-0.11;100.00
59337;BME280;45115;52.002;4.686;2023-01-25T02:54:17;103763.41;;;-0.09;100.00
59337;BME280;45115;52.002;4.686;2023-01-25T02:56:45;103762.69;;;-0.11;100.00
59337;BME280;45115;52.002;4.686;2023-01-25T02:59:12;103762.59;;;-0.09;100.00
59337;BME280;45115;52.002;4.686;2023-01-25T03:01:42;103755.25;;;-0.16;100.00
59337;BME280;45115;52.002;4.686;2023-01-25T03:04:09;103764.84;;;-0.16;100.00
59337;BME280;45115;52.002;4.686;2023-01-25T03:06:37;103763.53;;;-0.10;100.00
59337;BME280;45115;52.002;4.686;2023-01-25T03:09:06;103765.44;;;-0.12;100.00
59337;BME280;45115;52.002;4.686;2023-01-25T03:11:33;103749.56;;;-0.21;100.00
59337;BME280;45115;52.002;4.686;2023-01-25T03:14:00;103749.91;;;-0.25;100.00
59337;BME280;45115;52.002;4.686;2023-01-25T03:16:29;103751.91;;;-0.18;100.00
59337;BME280;45115;52.002;4.686;2023-01-25T03:18:58;103748.03;;;-0.23;100.00
59337;BME280;45115;52.002;4.686;2023-01-25T03:21:25;103749.09;;;-0.26;100.00
59337;BME280;45115;52.002;4.686;2023-01-25T03:23:57;103740.31;;;-0.25;100.00
59337;BME280;45115;52.002;4.686;2023-01-25T03:26:28;103747.69;;;-0.30;100.00
59337;BME280;45115;52.002;4.686;2023-01-25T03:29:15;103743.03;;;-0.27;100.00
59337;BME280;45115;52.002;4.686;2023-01-25T03:31:44;103734.75;;;-0.32;100.00
59337;BME280;45115;52.002;4.686;2023-01-25T03:34:13;103725.16;;;-0.31;100.00
59337;BME280;45115;52.002;4.686;2023-01-25T03:36:41;103729.88;;;-0.25;100.00
59337;BME280;45115;52.002;4.686;2023-01-25T03:39:08;103719.09;;;-0.32;100.00
59337;BME280;45115;52.002;4.686;2023-01-25T03:41:39;103729.16;;;-0.27;100.00
59337;BME280;45115;52.002;4.686;2023-01-25T03:44:09;103730.00;;;-0.27;100.00
59337;BME280;45115;52.002;4.686;2023-01-25T03:46:36;103729.41;;;-0.30;100.00
59337;BME280;45115;52.002;4.686;2023-01-25T03:49:04;103727.03;;;-0.33;100.00
59337;BME280;45115;52.002;4.686;2023-01-25T03:51:33;103718.53;;;-0.47;100.00
59337;BME280;45115;52.002;4.686;2023-01-25T03:54:00;103716.28;;;-0.51;100.00
59337;BME280;45115;52.002;4.686;2023-01-25T03:56:27;103709.28;;;-0.39;100.00
59337;BME280;45115;52.002;4.686;2023-01-25T03:59:04;103719.59;;;-0.38;100.00
59337;BME280;45115;52.002;4.686;2023-01-25T04:01:32;103708.78;;;-0.33;100.00
59337;BME280;45115;52.002;4.686;2023-01-25T04:03:59;103712.84;;;-0.41;100.00
59337;BME280;45115;52.002;4.686;2023-01-25T04:06:26;103707.50;;;-0.50;100.00
59337;BME280;45115;52.002;4.686;2023-01-25T04:08:55;103718.41;;;-0.45;100.00
59337;BME280;45115;52.002;4.686;2023-01-25T04:11:24;103709.03;;;-0.48;100.00
59337;BME280;45115;52.002;4.686;2023-01-25T04:13:52;103716.88;;;-0.48;100.00
59337;BME280;45115;52.002;4.686;2023-01-25T04:16:20;103709.41;;;-0.52;100.00
59337;BME280;45115;52.002;4.686;2023-01-25T04:18:59;103718.16;;;-0.42;100.00
59337;BME280;45115;52.002;4.686;2023-01-25T04:21:27;103711.66;;;-0.48;100.00
59337;BME280;45115;52.002;4.686;2023-01-25T04:23:55;103707.75;;;-0.54;100.00
59337;BME280;45115;52.002;4.686;2023-01-25T04:26:23;103709.03;;;-0.48;100.00
59337;BME280;45115;52.002;4.686;2023-01-25T04:28:54;103713.06;;;-0.44;100.00
59337;BME280;45115;52.002;4.686;2023-01-25T04:31:21;103687.97;;;-0.56;100.00
59337;BME280;45115;52.002;4.686;2023-01-25T04:33:47;103702.28;;;-0.39;100.00
59337;BME280;45115;52.002;4.686;2023-01-25T04:36:16;103704.63;;;-0.36;100.00
59337;BME280;45115;52.002;4.686;2023-01-25T04:38:43;103688.19;;;-0.48;100.00
59337;BME280;45115;52.002;4.686;2023-01-25T04:41:11;103698.25;;;-0.43;100.00
59337;BME280;45115;52.002;4.686;2023-01-25T04:43:38;103688.63;;;-0.43;100.00
59337;BME280;45115;52.002;4.686;2023-01-25T04:46:08;103683.56;;;-0.56;100.00
59337;BME280;45115;52.002;4.686;2023-01-25T04:48:35;103687.59;;;-0.51;100.00
59337;BME280;45115;52.002;4.686;2023-01-25T04:51:04;103683.19;;;-0.39;100.00
59337;BME280;45115;52.002;4.686;2023-01-25T04:53:33;103679.63;;;-0.38;100.00
59337;BME280;45115;52.002;4.686;2023-01-25T04:56:03;103677.28;;;-0.42;100.00
59337;BME280;45115;52.002;4.686;2023-01-25T04:58:35;103683.53;;;-0.33;100.00
59337;BME280;45115;52.002;4.686;2023-01-25T05:01:02;103668.69;;;-0.32;100.00
59337;BME280;45115;52.002;4.686;2023-01-25T05:03:30;103677.47;;;-0.33;100.00
59337;BME280;45115;52.002;4.686;2023-01-25T05:05:57;103678.31;;;-0.33;100.00
59337;BME280;45115;52.002;4.686;2023-01-25T05:08:24;103671.91;;;-0.40;100.00
59337;BME280;45115;52.002;4.686;2023-01-25T05:10:55;103668.22;;;-0.37;100.00
59337;BME280;45115;52.002;4.686;2023-01-25T05:13:43;103673.59;;;-0.39;100.00
59337;BME280;45115;52.002;4.686;2023-01-25T05:16:16;103671.69;;;-0.37;100.00
59337;BME280;45115;52.002;4.686;2023-01-25T05:18:43;103671.00;;;-0.39;100.00
59337;BME280;45115;52.002;4.686;2023-01-25T05:21:11;103669.56;;;-0.43;100.00
59337;BME280;45115;52.002;4.686;2023-01-25T05:23:52;103667.91;;;-0.44;100.00
59337;BME280;45115;52.002;4.686;2023-01-25T05:26:19;103676.09;;;-0.49;100.00
59337;BME280;45115;52.002;4.686;2023-01-25T05:29:04;103667.78;;;-0.43;100.00
59337;BME280;45115;52.002;4.686;2023-01-25T05:31:38;103677.88;;;-0.49;100.00
59337;BME280;45115;52.002;4.686;2023-01-25T05:34:05;103675.63;;;-0.54;100.00
59337;BME280;45115;52.002;4.686;2023-01-25T05:36:31;103656.09;;;-0.60;100.00
59337;BME280;45115;52.002;4.686;2023-01-25T05:39:03;103676.13;;;-0.60;100.00
59337;BME280;45115;52.002;4.686;2023-01-25T05:41:31;103665.56;;;-0.59;100.00
59337;BME280;45115;52.002;4.686;2023-01-25T05:43:57;103675.63;;;-0.54;100.00
59337;BME280;45115;52.002;4.686;2023-01-25T05:46:27;103663.78;;;-0.58;100.00
59337;BME280;45115;52.002;4.686;2023-01-25T05:48:55;103669.22;;;-0.50;100.00
59337;BME280;45115;52.002;4.686;2023-01-25T05:51:24;103668.16;;;-0.47;100.00
59337;BME280;45115;52.002;4.686;2023-01-25T05:53:53;103664.13;;;-0.51;100.00
59337;BME280;45115;52.002;4.686;2023-01-25T05:56:20;103665.78;;;-0.50;100.00
59337;BME280;45115;52.002;4.686;2023-01-25T05:58:51;103662.25;;;-0.61;100.00
59337;BME280;45115;52.002;4.686;2023-01-25T06:01:18;103667.00;;;-0.55;100.00
59337;BME280;45115;52.002;4.686;2023-01-25T06:03:52;103647.47;;;-0.72;100.00
59337;BME280;45115;52.002;4.686;2023-01-25T06:06:21;103660.47;;;-0.60;100.00
59337;BME280;45115;52.002;4.686;2023-01-25T06:08:48;103656.91;;;-0.59;100.00
59337;BME280;45115;52.002;4.686;2023-01-25T06:11:17;103656.91;;;-0.59;100.00
59337;BME280;45115;52.002;4.686;2023-01-25T06:13:45;103660.47;;;-0.60;100.00
59337;BME280;45115;52.002;4.686;2023-01-25T06:16:13;103672.41;;;-0.46;100.00
59337;BME280;45115;52.002;4.686;2023-01-25T06:18:40;103667.69;;;-0.52;100.00
59337;BME280;45115;52.002;4.686;2023-01-25T06:21:27;103662.72;;;-0.56;100.00
59337;BME280;45115;52.002;4.686;2023-01-25T06:23:53;103674.56;;;-0.51;100.00
59337;BME280;45115;52.002;4.686;2023-01-25T06:26:20;103672.91;;;-0.52;100.00
59337;BME280;45115;52.002;4.686;2023-01-25T06:28:46;103672.78;;;-0.51;100.00
59337;BME280;45115;52.002;4.686;2023-01-25T06:31:16;103675.41;;;-0.51;100.00
59337;BME280;45115;52.002;4.686;2023-01-25T06:33:45;103663.78;;;-0.58;100.00
59337;BME280;45115;52.002;4.686;2023-01-25T06:36:15;103665.56;;;-0.59;100.00
59337;BME280;45115;52.002;4.686;2023-01-25T06:38:47;103663.56;;;-0.67;100.00
59337;BME280;45115;52.002;4.686;2023-01-25T06:41:13;103666.38;;;-0.58;100.00
59337;BME280;45115;52.002;4.686;2023-01-25T06:43:40;103666.75;;;-0.63;100.00
59337;BME280;45115;52.002;4.686;2023-01-25T06:46:08;103659.06;;;-0.64;100.00
59337;BME280;45115;52.002;4.686;2023-01-25T06:48:36;103655.19;;;-0.70;100.00
59337;BME280;45115;52.002;4.686;2023-01-25T06:51:05;103657.28;;;-0.64;100.00
59337;BME280;45115;52.002;4.686;2023-01-25T06:53:34;103657.50;;;-0.56;100.00
59337;BME280;45115;52.002;4.686;2023-01-25T06:56:05;103655.97;;;-0.58;100.00
59337;BME280;45115;52.002;4.686;2023-01-25T06:58:32;103655.59;;;-0.54;100.00
59337;BME280;45115;52.002;4.686;2023-01-25T07:01:00;103666.38;;;-0.58;100.00
59337;BME280;45115;52.002;4.686;2023-01-25T07:03:29;103662.72;;;-0.56;100.00
59337;BME280;45115;52.002;4.686;2023-01-25T07:05:57;103654.75;;;-0.54;100.00
59337;BME280;45115;52.002;4.686;2023-01-25T07:08:23;103654.75;;;-0.54;100.00
59337;BME280;45115;52.002;4.686;2023-01-25T07:10:54;103647.91;;;-0.55;100.00
59337;BME280;45115;52.002;4.686;2023-01-25T07:13:22;103643.25;;;-0.51;100.00
59337;BME280;45115;52.002;4.686;2023-01-25T07:15:54;103650.03;;;-0.60;100.00
59337;BME280;45115;52.002;4.686;2023-01-25T07:18:21;103652.06;;;-0.64;100.00
59337;BME280;45115;52.002;4.686;2023-01-25T07:20:48;103659.41;;;-0.58;100.00
59337;BME280;45115;52.002;4.686;2023-01-25T07:23:15;103655.72;;;-0.55;100.00
59337;BME280;45115;52.002;4.686;2023-01-25T07:25:44;103652.38;;;-0.46;100.00
59337;BME280;45115;52.002;4.686;2023-01-25T07:28:11;103655.69;;;-0.44;100.00
59337;BME280;45115;52.002;4.686;2023-01-25T07:30:40;103656.53;;;-0.43;100.00
59337;BME280;45115;52.002;4.686;2023-01-25T07:33:07;103656.66;;;-0.45;100.00
59337;BME280;45115;52.002;4.686;2023-01-25T07:35:34;103644.81;;;-0.60;100.00
59337;BME280;45115;52.002;4.686;2023-01-25T07:38:01;103642.81;;;-0.57;100.00
59337;BME280;45115;52.002;4.686;2023-01-25T07:40:27;103632.16;;;-0.65;100.00
59337;BME280;45115;52.002;4.686;2023-01-25T07:42:54;103634.75;;;-0.54;100.00
59337;BME280;45115;52.002;4.686;2023-01-25T07:45:22;103636.16;;;-0.49;100.00
59337;BME280;45115;52.002;4.686;2023-01-25T07:47:56;103634.38;;;-0.49;100.00
59337;BME280;45115;52.002;4.686;2023-01-25T07:50:24;103610.94;;;-0.60;100.00
59337;BME280;45115;52.002;4.686;2023-01-25T07:52:52;103616.94;;;-0.48;100.00
59337;BME280;45115;52.002;4.686;2023-01-25T07:55:19;103623.69;;;-0.46;100.00
59337;BME280;45115;52.002;4.686;2023-01-25T07:57:46;103615.41;;;-0.51;100.00
59337;BME280;45115;52.002;4.686;2023-01-25T08:00:13;103608.41;;;-0.50;100.00
59337;BME280;45115;52.002;4.686;2023-01-25T08:02:39;103603.44;;;-0.54;100.00
59337;BME280;45115;52.002;4.686;2023-01-25T08:05:08;103608.28;;;-0.49;100.00
59337;BME280;45115;52.002;4.686;2023-01-25T08:07:35;103611.34;;;-0.44;100.00
59337;BME280;45115;52.002;4.686;2023-01-25T08:10:03;103614.69;;;-0.42;100.00
59337;BME280;45115;52.002;4.686;2023-01-25T08:12:31;103616.91;;;-0.37;100.00
59337;BME280;45115;52.002;4.686;2023-01-25T08:14:59;103617.13;;;-0.40;100.00
59337;BME280;45115;52.002;4.686;2023-01-25T08:17:26;103614.97;;;-0.35;100.00
59337;BME280;45115;52.002;4.686;2023-01-25T08:19:56;103624.50;;;-0.34;100.00
59337;BME280;45115;52.002;4.686;2023-01-25T08:22:24;103621.16;;;-0.36;100.00
59337;BME280;45115;52.002;4.686;2023-01-25T08:24:51;103619.28;;;-0.34;100.00
59337;BME280;45115;52.002;4.686;2023-01-25T08:27:17;103605.50;;;-0.36;100.00
59337;BME280;45115;52.002;4.686;2023-01-25T08:29:44;103604.09;;;-0.40;100.00
59337;BME280;45115;52.002;4.686;2023-01-25T08:32:11;103615.31;;;-0.28;100.00
59337;BME280;45115;52.002;4.686;2023-01-25T08:34:37;103622.78;;;-0.23;100.00
59337;BME280;45115;52.002;4.686;2023-01-25T08:37:05;103616.28;;;-0.29;100.00
59337;BME280;45115;52.002;4.686;2023-01-25T08:39:33;103615.94;;;-0.36;100.00
59337;BME280;45115;52.002;4.686;2023-01-25T08:42:00;103615.94;;;-0.36;100.00
59337;BME280;45115;52.002;4.686;2023-01-25T08:44:26;103609.66;;;-0.33;100.00
59337;BME280;45115;52.002;4.686;2023-01-25T08:46:53;103598.19;;;-0.42;100.00
59337;BME280;45115;52.002;4.686;2023-01-25T08:49:20;103595.91;;;-0.35;100.00
59337;BME280;45115;52.002;4.686;2023-01-25T08:51:46;103599.66;;;-0.28;100.00
59337;BME280;45115;52.002;4.686;2023-01-25T08:54:14;103606.22;;;-0.34;100.00
59337;BME280;45115;52.002;4.686;2023-01-25T08:56:42;103597.50;;;-0.44;100.00
59337;BME280;45115;52.002;4.686;2023-01-25T08:59:11;103603.28;;;-0.41;100.00
59337;BME280;45115;52.002;4.686;2023-01-25T09:01:38;103604.31;;;-0.32;100.00
59337;BME280;45115;52.002;4.686;2023-01-25T09:04:04;103603.13;;;-0.28;100.00
59337;BME280;45115;52.002;4.686;2023-01-25T09:06:32;103602.94;;;-0.15;100.00
59337;BME280;45115;52.002;4.686;2023-01-25T09:08:59;103582.31;;;-0.18;100.00
59337;BME280;45115;52.002;4.686;2023-01-25T09:11:25;103588.81;;;-0.12;100.00
59337;BME280;45115;52.002;4.686;2023-01-25T09:13:53;103577.22;;;-0.19;100.00
59337;BME280;45115;52.002;4.686;2023-01-25T09:16:22;103568.63;;;-0.10;100.00
59337;BME280;45115;52.002;4.686;2023-01-25T09:18:53;103592.69;;;-0.06;100.00
59337;BME280;45115;52.002;4.686;2023-01-25T09:21:20;103573.50;;;-0.17;100.00
59337;BME280;45115;52.002;4.686;2023-01-25T09:23:47;103586.66;;;-0.07;100.00
59337;BME280;45115;52.002;4.686;2023-01-25T09:26:14;103559.47;;;-0.25;100.00
59337;BME280;45115;52.002;4.686;2023-01-25T09:28:42;103586.31;;;-0.14;100.00
59337;BME280;45115;52.002;4.686;2023-01-25T09:31:13;103592.63;;;-0.16;100.00
59337;BME280;45115;52.002;4.686;2023-01-25T09:34:00;103597.78;;;-0.05;100.00
59337;BME280;45115;52.002;4.686;2023-01-25T09:36:28;103580.91;;;-0.01;100.00
59337;BME280;45115;52.002;4.686;2023-01-25T09:38:55;103576.66;;;-0.02;100.00
59337;BME280;45115;52.002;4.686;2023-01-25T09:44:40;103570.34;;;0.01;100.00
59337;BME280;45115;52.002;4.686;2023-01-25T09:47:14;103557.88;;;0.05;100.00
59337;BME280;45115;52.002;4.686;2023-01-25T09:50:03;103554.41;;;0.04;100.00
59337;BME280;45115;52.002;4.686;2023-01-25T09:52:56;103556.38;;;0.12;100.00
59337;BME280;45115;52.002;4.686;2023-01-25T09:55:28;103564.41;;;0.20;100.00
59337;BME280;45115;52.002;4.686;2023-01-25T09:57:56;103562.16;;;0.16;100.00
59337;BME280;45115;52.002;4.686;2023-01-25T10:00:29;103552.44;;;0.18;100.00
59337;BME280;45115;52.002;4.686;2023-01-25T10:03:02;103551.91;;;0.24;100.00
59337;BME280;45115;52.002;4.686;2023-01-25T10:05:41;103547.66;;;0.23;100.00
59337;BME280;45115;52.002;4.686;2023-01-25T10:08:17;103541.06;;;0.29;100.00
59337;BME280;45115;52.002;4.686;2023-01-25T10:10:49;103532.00;;;0.23;100.00
59337;BME280;45115;52.002;4.686;2023-01-25T10:13:22;103513.84;;;0.21;100.00
59337;BME280;45115;52.002;4.686;2023-01-25T10:15:52;103527.50;;;0.35;100.00
59337;BME280;45115;52.002;4.686;2023-01-25T10:18:26;103521.88;;;0.39;100.00
59337;BME280;45115;52.002;4.686;2023-01-25T10:20:58;103520.91;;;0.41;100.00
59337;BME280;45115;52.002;4.686;2023-01-25T10:26:25;103511.03;;;0.44;100.00
59337;BME280;45115;52.002;4.686;2023-01-25T10:28:56;103501.94;;;0.38;100.00
59337;BME280;45115;52.002;4.686;2023-01-25T10:31:29;103509.50;;;0.42;100.00
59337;BME280;45115;52.002;4.686;2023-01-25T10:34:01;103512.00;;;0.43;100.00
59337;BME280;45115;52.002;4.686;2023-01-25T10:36:29;103506.78;;;0.43;100.00
59337;BME280;45115;52.002;4.686;2023-01-25T10:38:56;103498.25;;;0.41;100.00
59337;BME280;45115;52.002;4.686;2023-01-25T10:41:33;103490.13;;;0.44;100.00
59337;BME280;45115;52.002;4.686;2023-01-25T10:44:02;103492.50;;;0.47;100.00
59337;BME280;45115;52.002;4.686;2023-01-25T10:46:52;103495.66;;;0.51;100.00
59337;BME280;45115;52.002;4.686;2023-01-25T10:49:26;103483.25;;;0.43;100.00
59337;BME280;45115;52.002;4.686;2023-01-25T10:51:54;103488.06;;;0.38;100.00
59337;BME280;45115;52.002;4.686;2023-01-25T10:54:22;103475.13;;;0.36;100.00
59337;BME280;45115;52.002;4.686;2023-01-25T10:56:50;103462.91;;;0.37;100.00
59337;BME280;45115;52.002;4.686;2023-01-25T10:59:21;103463.50;;;0.50;100.00
59337;BME280;45115;52.002;4.686;2023-01-25T11:01:48;103460.59;;;0.53;100.00
59337;BME280;45115;52.002;4.686;2023-01-25T11:04:28;103459.63;;;0.55;100.00
59337;BME280;45115;52.002;4.686;2023-01-25T11:06:55;103447.84;;;0.60;100.00
59337;BME280;45115;52.002;4.686;2023-01-25T11:09:36;103440.69;;;0.62;100.00
59337;BME280;45115;52.002;4.686;2023-01-25T11:12:14;103441.38;;;0.74;100.00
59337;BME280;45115;52.002;4.686;2023-01-25T11:14:42;103433.97;;;0.79;100.00
59337;BME280;45115;52.002;4.686;2023-01-25T11:17:24;103429.69;;;0.78;100.00
59337;BME280;45115;52.002;4.686;2023-01-25T11:20:26;103423.09;;;0.74;100.00
59337;BME280;45115;52.002;4.686;2023-01-25T11:22:55;103413.59;;;0.73;100.00
59337;BME280;45115;52.002;4.686;2023-01-25T11:25:27;103410.56;;;0.68;100.00
59337;BME280;45115;52.002;4.686;2023-01-25T11:28:10;103406.59;;;0.74;100.00
59337;BME280;45115;52.002;4.686;2023-01-25T11:30:37;103399.31;;;0.77;100.00
59337;BME280;45115;52.002;4.686;2023-01-25T11:33:08;103392.97;;;0.80;100.00
59337;BME280;45115;52.002;4.686;2023-01-25T11:35:44;103381.56;;;0.81;100.00
59337;BME280;45115;52.002;4.686;2023-01-25T11:38:21;103376.63;;;0.88;100.00
59337;BME280;45115;52.002;4.686;2023-01-25T11:40:52;103370.69;;;0.86;100.00
59337;BME280;45115;52.002;4.686;2023-01-25T11:43:38;103364.78;;;0.84;100.00
59337;BME280;45115;52.002;4.686;2023-01-25T11:46:18;103356.38;;;0.90;100.00
59337;BME280;45115;52.002;4.686;2023-01-25T11:49:11;103351.81;;;0.92;100.00
59337;BME280;45115;52.002;4.686;2023-01-25T11:51:49;103335.59;;;0.98;100.00
59337;BME280;45115;52.002;4.686;2023-01-25T11:54:41;103326.94;;;0.98;100.00
59337;BME280;45115;52.002;4.686;2023-01-25T12:00:22;103315.38;;;1.00;100.00
59337;BME280;45115;52.002;4.686;2023-01-25T12:02:59;103317.31;;;0.98;100.00
59337;BME280;45115;52.002;4.686;2023-01-25T12:05:42;103310.69;;;0.84;100.00
59337;BME280;45115;52.002;4.686;2023-01-25T12:08:28;103276.09;;;0.72;100.00
59337;BME280;45115;52.002;4.686;2023-01-25T12:11:05;103293.69;;;0.80;100.00
59337;BME280;45115;52.002;4.686;2023-01-25T12:13:38;103286.78;;;0.79;100.00
59337;BME280;45115;52.002;4.686;2023-01-25T12:16:22;103272.59;;;0.82;100.00
59337;BME280;45115;52.002;4.686;2023-01-25T12:19:14;103272.19;;;0.86;100.00
59337;BME280;45115;52.002;4.686;2023-01-25T12:21:59;103264.75;;;0.91;100.00
59337;BME280;45115;52.002;4.686;2023-01-25T12:24:43;103259.28;;;0.85;100.00
59337;BME280;45115;52.002;4.686;2023-01-25T12:27:23;103255.28;;;0.81;100.00
59337;BME280;45115;52.002;4.686;2023-01-25T12:29:57;103251.03;;;0.79;100.00
59337;BME280;45115;52.002;4.686;2023-01-25T12:32:30;103241.72;;;0.67;100.00
59337;BME280;45115;52.002;4.686;2023-01-25T12:35:11;103236.31;;;0.78;100.00
59337;BME280;45115;52.002;4.686;2023-01-25T12:37:42;103217.78;;;0.72;100.00
59337;BME280;45115;52.002;4.686;2023-01-25T12:40:15;103221.63;;;0.77;100.00
59337;BME280;45115;52.002;4.686;2023-01-25T12:42:49;103217.66;;;0.63;100.00
59337;BME280;45115;52.002;4.686;2023-01-25T12:45:20;103210.63;;;0.64;100.00
59337;BME280;45115;52.002;4.686;2023-01-25T12:47:52;103208.16;;;0.62;100.00
59337;BME280;45115;52.002;4.686;2023-01-25T12:50:22;103222.31;;;0.60;100.00
59337;BME280;45115;52.002;4.686;2023-01-25T12:52:53;103204.91;;;0.50;100.00
59337;BME280;45115;52.002;4.686;2023-01-25T12:55:24;103211.47;;;0.55;100.00
59337;BME280;45115;52.002;4.686;2023-01-25T12:57:58;103201.88;;;0.55;100.00
59337;BME280;45115;52.002;4.686;2023-01-25T13:00:34;103194.19;;;0.44;100.00
59337;BME280;45115;52.002;4.686;2023-01-25T13:03:20;103185.28;;;0.26;100.00
59337;BME280;45115;52.002;4.686;2023-01-25T13:05:56;103193.66;;;0.40;100.00
59337;BME280;45115;52.002;4.686;2023-01-25T13:08:33;103187.72;;;0.38;100.00
59337;BME280;45115;52.002;4.686;2023-01-25T13:11:10;103187.16;;;0.44;100.00